Piedmont, Wyoming
Current Conditions -  °F | °C
As of 9:55 AM on Thursday 30 Oct 2014 (Local Time) from KFBR Reporting Station
Clear Clear  
Wind Chill: 43°   Ceiling: Unl
Heat Index: 45°   Visibility: NA
Dew Point: 29°   Wind: 5mph
Humidity: 53%   Direction: 90°E
Pressure: 30.42"   Gusts: NA
Location:  41.2998°N, 110.328°W
Report Text: KFBR 301555Z AUTO 09004KT CLR 07/M02 A3042 RMK AO2 T00741017 PWINO
Loading
Personal Weather Stations






























Interactive Weather Map
Tropical Storm Tracking
New forecast layout! Learn more

10-Day Weather Forecast

Advertisements
Track Severe Weather on mobile